Pokaż wyniki od 1 do 5 z 5

Wątek: W!ZZ

  1. #1

    Dołączył
    Oct 2009
    Mieszka w
    Iwaniska

    Domyślnie W!ZZ


    Polecamy



    wie ktoś jaki powód lądowania na EPWA?

  2. #2
    Awatar SimOn!

    Dołączył
    Feb 2009
    Mieszka w
    EPGD

    Domyślnie

    METAR EPGD 090000Z VRB01KT 0200 R29/0275 FZFG VV002 M01/M01 Q1018=

    Mgła.

    Podobnie zresztą jak CORK (ORK) W6 320 o 01:50, też lądowanie w WAW.
    Up up and away !!!
    Pozdrawiam,

    SimOn!



  3. #3

    Dołączył
    Feb 2007
    Mieszka w
    '

    Domyślnie

    Czyli 5 Wizzów na nocowaniu

    KS
    Deluxe Limited Edition with Bonus Track & DVD

  4. #4

    Dołączył
    Oct 2009
    Mieszka w
    Iwaniska

    Domyślnie

    Cytat Zamieszczone przez SimOn! Zobacz posta
    METAR EPGD 090000Z VRB01KT 0200 R29/0275 FZFG VV002 M01/M01 Q1018=

    Mgła.

    Podobnie zresztą jak CORK (ORK) W6 320 o 01:50, też lądowanie w WAW.

    Czekałem właśnie na Cork ale zmogło już mnie spanie. ;/
    Dzięki za info.

  5. #5
    Awatar SimOn!

    Dołączył
    Feb 2009
    Mieszka w
    EPGD

    Domyślnie


    Polecamy

    Cytat Zamieszczone przez Damianoo7 Zobacz posta
    Czekałem właśnie na Cork ale zmogło już mnie spanie. ;/
    Dzięki za info.
    Prosz Ja i tak nie mogłem się zdrzemnąć
    Up up and away !!!
    Pozdrawiam,

    SimOn!



Uprawnienia umieszczania postów

  • Nie możesz zakładać nowych tematów
  • Nie możesz pisać wiadomości
  • Nie możesz dodawać załączników
  • Nie możesz edytować swoich postów
  •